Time;durP1;ratioP1;P1;durP2;ratioP2;P2;SDS_P1;SDS_P2;PMS_P1;PMS_P2;Temp;Humidity;BMP_temperature;BMP_pressure;BME280_temperature;BME280_humidity;BME280_pressure;Samples;Min_cycle;Max_cycle;Signal;HPM_P1;HPM_P2
2022/12/31 00:01:25;;;;;;;0.43;0.40;;;9.20;99.90;9.30;99878.00;;;;4908592;28;93374;-68
2022/12/31 00:03:51;;;;;;;0.10;0.10;;;9.30;99.90;9.30;99876.00;;;;4893571;28;103790;-68
2022/12/31 00:06:23;;;;;;;0.27;0.27;;;9.50;99.90;9.50;99868.00;;;;4910173;28;104789;-69
2022/12/31 00:08:51;;;;;;;0.10;0.10;;;9.50;99.90;9.60;99870.00;;;;4891546;28;93892;-68
2022/12/31 00:11:18;;;;;;;0.40;0.23;;;9.50;99.90;9.60;99885.00;;;;4907844;28;93251;-69
2022/12/31 00:13:45;;;;;;;0.30;0.10;;;9.60;99.90;9.70;99887.00;;;;4907107;28;97989;-68
2022/12/31 00:16:29;;;;;;;0.00;0.00;;;9.70;99.90;9.80;99895.00;;;;4909607;28;93391;-67
2022/12/31 00:19:00;;;;;;;0.20;0.10;;;9.80;99.90;9.80;99884.00;;;;4910254;28;92810;-67
2022/12/31 00:21:28;;;;;;;0.17;0.17;;;9.90;99.90;9.80;99880.00;;;;4908625;28;93242;-68
2022/12/31 00:23:54;;;;;;;1.07;0.40;;;9.80;99.90;9.90;99893.00;;;;4908075;28;95421;-69
2022/12/31 00:26:24;;;;;;;0.57;0.43;;;9.90;99.90;10.00;99889.00;;;;4908892;28;92553;-67
2022/12/31 00:28:52;;;;;;;0.20;0.20;;;10.00;99.90;10.00;99889.00;;;;4909629;28;92882;-66
2022/12/31 00:31:28;;;;;;;0.00;0.00;;;10.00;99.90;10.10;99899.00;;;;4880720;28;108125;-68
2022/12/31 00:33:54;;;;;;;0.10;0.10;;;10.20;99.90;10.20;99888.00;;;;4887051;28;93809;-67
2022/12/31 00:36:32;;;;;;;0.10;0.10;;;10.20;99.90;10.20;99898.00;;;;4906803;28;102078;-66
2022/12/31 00:39:00;;;;;;;0.10;0.10;;;10.20;99.90;10.30;99903.00;;;;4908164;28;92980;-68
2022/12/31 00:41:27;;;;;;;0.23;0.20;;;10.30;99.90;10.30;99900.00;;;;4906892;28;94271;-67
2022/12/31 00:43:53;;;;;;;0.10;0.10;;;10.40;99.90;10.40;99907.00;;;;4902607;28;112612;-68
2022/12/31 00:46:20;;;;;;;0.37;0.20;;;10.40;99.90;10.40;99912.00;;;;4905526;28;93058;-67
2022/12/31 00:48:46;;;;;;;0.20;0.20;;;10.50;99.90;10.50;99918.00;;;;4906365;28;92837;-67
2022/12/31 00:51:16;;;;;;;0.50;0.30;;;10.50;99.90;10.50;99925.00;;;;4906602;28;122817;-67
2022/12/31 00:53:43;;;;;;;0.10;0.10;;;10.70;99.90;10.60;99923.00;;;;4903519;28;93134;-67
2022/12/31 00:56:15;;;;;;;0.20;0.20;;;10.60;99.90;10.70;99928.00;;;;4910172;28;93072;-67
2022/12/31 00:58:41;;;;;;;0.00;0.00;;;10.70;99.90;10.70;99933.00;;;;4884131;28;94305;-66
2022/12/31 01:01:30;;;;;;;0.10;0.10;;;10.80;99.90;10.80;99936.00;;;;4905013;28;113732;-68
2022/12/31 01:04:05;;;;;;;0.10;0.10;;;10.80;99.90;10.90;99956.00;;;;4907049;28;92928;-67
2022/12/31 01:06:31;;;;;;;0.10;0.10;;;10.90;99.90;11.00;99957.00;;;;4907347;28;92897;-69
2022/12/31 01:08:56;;;;;;;0.20;0.20;;;10.70;99.90;11.10;99966.00;;;;4906374;28;92896;-69
2022/12/31 01:11:23;;;;;;;0.10;0.10;;;11.10;99.90;11.10;99968.00;;;;4909512;28;122243;-68
2022/12/31 01:13:58;;;;;;;0.20;0.20;;;11.10;99.90;11.20;99967.00;;;;4906747;28;93012;-67
2022/12/31 01:16:33;;;;;;;1.40;0.10;;;11.20;99.90;11.30;99968.00;;;;4868909;28;92374;-65
2022/12/31 01:19:03;;;;;;;0.70;0.20;;;11.30;99.90;11.40;99977.00;;;;4880502;28;92901;-68
2022/12/31 01:21:29;;;;;;;0.23;0.23;;;11.40;99.90;11.50;99982.00;;;;4887483;28;100395;-68
2022/12/31 01:23:56;;;;;;;0.10;0.10;;;11.50;99.90;11.60;99968.00;;;;4903477;28;94044;-70
2022/12/31 01:26:22;;;;;;;0.10;0.10;;;11.60;99.90;11.60;99980.00;;;;4905510;28;92843;-66
2022/12/31 01:28:48;;;;;;;0.73;0.40;;;11.60;99.90;11.70;99970.00;;;;4907757;28;108631;-67
2022/12/31 01:31:17;;;;;;;0.10;0.10;;;11.70;99.90;11.70;99984.00;;;;4901709;28;122997;-67
2022/12/31 01:33:43;;;;;;;0.30;0.10;;;11.70;99.90;11.80;99994.00;;;;4890297;28;97351;-66
2022/12/31 01:36:19;;;;;;;0.30;0.20;;;11.80;99.90;11.80;100005.00;;;;4907782;28;92840;-66
2022/12/31 01:38:45;;;;;;;0.40;0.30;;;11.90;99.90;11.90;99987.00;;;;4907645;28;92920;-68
2022/12/31 01:41:18;;;;;;;0.73;0.20;;;11.80;99.90;11.90;99999.00;;;;4909461;28;93446;-67
2022/12/31 01:43:52;;;;;;;0.53;0.13;;;11.90;99.90;11.90;99988.00;;;;4906145;28;104459;-67
2022/12/31 01:46:37;;;;;;;1.17;0.23;;;11.90;99.90;11.90;99997.00;;;;4909504;28;93247;-67
2022/12/31 01:49:25;;;;;;;0.20;0.10;;;12.00;99.90;11.90;99993.00;;;;4893026;28;94207;-67
2022/12/31 01:52:06;;;;;;;0.17;0.17;;;11.90;99.90;12.00;100001.00;;;;4903503;28;92864;-69
2022/12/31 01:54:41;;;;;;;0.10;0.10;;;12.00;99.90;12.00;99998.00;;;;4891278;28;109231;-67
2022/12/31 01:57:08;;;;;;;0.10;0.10;;;12.00;99.90;12.00;99992.00;;;;4904443;28;96037;-69
2022/12/31 01:59:34;;;;;;;0.10;0.10;;;12.00;99.90;12.00;99988.00;;;;4888712;28;93958;-67
2022/12/31 02:02:00;;;;;;;0.10;0.10;;;12.00;99.90;12.00;99995.00;;;;4886371;28;122100;-66
2022/12/31 02:04:27;;;;;;;0.03;0.03;;;12.00;99.90;12.00;100001.00;;;;4888986;28;120904;-68
2022/12/31 02:06:59;;;;;;;0.23;0.20;;;12.00;99.90;12.00;100009.00;;;;4906916;28;91947;-68
2022/12/31 02:09:24;;;;;;;0.10;0.10;;;12.10;99.90;12.10;100002.00;;;;4906841;28;92924;-67
2022/12/31 02:11:50;;;;;;;0.10;0.10;;;11.80;99.90;12.10;100010.00;;;;4886256;28;124999;-67
2022/12/31 02:14:25;;;;;;;0.10;0.10;;;12.10;99.90;12.10;100013.00;;;;4903992;28;122588;-69
2022/12/31 02:17:01;;;;;;;0.10;0.10;;;12.10;99.90;12.10;100009.00;;;;4888137;28;104828;-68
2022/12/31 02:20:14;;;;;;;0.10;0.10;;;12.10;99.90;12.10;100010.00;;;;4892465;28;102267;-70
2022/12/31 02:23:05;;;;;;;0.00;0.00;;;12.10;99.90;12.10;100007.00;;;;4883703;28;95638;-70
2022/12/31 02:26:14;;;;;;;0.30;0.10;;;12.10;99.90;12.10;100002.00;;;;4900391;28;106381;-68
2022/12/31 02:29:28;;;;;;;0.53;0.10;;;12.10;99.90;12.10;99991.00;;;;4885337;28;92705;-67
2022/12/31 02:32:14;;;;;;;0.10;0.10;;;12.10;99.90;12.10;99992.00;;;;4904056;28;93209;-70
2022/12/31 02:34:49;;;;;;;0.20;0.10;;;12.20;99.90;12.10;99988.00;;;;4882725;28;92118;-68
2022/12/31 02:37:17;;;;;;;0.00;0.00;;;12.20;99.90;12.20;99986.00;;;;4892789;28;115601;-67
2022/12/31 02:39:44;;;;;;;0.30;0.10;;;12.20;99.90;12.20;99997.00;;;;4907018;28;111766;-65
2022/12/31 02:42:10;;;;;;;0.10;0.10;;;12.20;99.90;12.20;99992.00;;;;4892501;28;94021;-67
2022/12/31 02:44:39;;;;;;;0.20;0.20;;;12.20;99.90;12.20;99992.00;;;;4912097;28;94086;-67
2022/12/31 02:47:07;;;;;;;0.30;0.20;;;12.30;99.90;12.20;99993.00;;;;4889792;28;93088;-68
2022/12/31 02:50:01;;;;;;;0.27;0.27;;;12.30;99.90;12.30;99973.00;;;;4907637;28;105680;-66
2022/12/31 02:52:52;;;;;;;0.40;0.13;;;12.30;99.90;12.30;99964.00;;;;4912206;28;92810;-69
2022/12/31 02:55:45;;;;;;;0.10;0.07;;;12.30;99.90;12.30;99957.00;;;;4909740;28;93539;-69
2022/12/31 03:04:33;;;;;;;0.10;0.10;;;12.40;99.90;12.40;99980.00;;;;4887474;28;92805;-67
2022/12/31 03:07:12;;;;;;;0.30;0.10;;;12.40;99.90;12.40;99998.00;;;;4893707;28;93131;-68
2022/12/31 03:09:38;;;;;;;0.10;0.10;;;12.50;99.90;12.50;99998.00;;;;4895574;28;94045;-68
2022/12/31 03:14:52;;;;;;;0.07;0.07;;;12.50;99.90;12.60;100004.00;;;;4895813;28;92940;-69
2022/12/31 03:17:18;;;;;;;0.07;0.00;;;12.60;99.90;12.60;99988.00;;;;4909767;28;117069;-68
2022/12/31 03:22:28;;;;;;;0.07;0.07;;;12.60;99.90;12.70;100002.00;;;;4908902;28;92979;-66
2022/12/31 03:27:38;;;;;;;0.10;0.10;;;12.80;99.90;12.80;100009.00;;;;4909775;28;93901;-66
2022/12/31 03:30:05;;;;;;;0.00;0.00;;;12.80;99.90;12.90;100000.00;;;;4910368;28;122532;-67
2022/12/31 03:32:30;;;;;;;0.10;0.10;;;12.80;99.90;12.90;100000.00;;;;4909593;28;93158;-66
2022/12/31 03:34:56;;;;;;;0.20;0.13;;;12.90;99.90;12.90;100011.00;;;;4910099;28;107503;-65
2022/12/31 03:37:22;;;;;;;0.00;0.00;;;12.90;99.90;12.90;100010.00;;;;4904347;28;122409;-67
2022/12/31 03:39:47;;;;;;;0.10;0.10;;;12.90;99.90;12.90;99998.00;;;;4891670;28;121328;-66
2022/12/31 03:42:13;;;;;;;0.10;0.10;;;12.90;99.90;13.00;100008.00;;;;4906302;28;110115;-66
2022/12/31 03:44:39;;;;;;;0.10;0.07;;;12.90;99.90;13.00;100008.00;;;;4906468;28;107358;-67
2022/12/31 03:47:04;;;;;;;0.00;0.00;;;13.00;99.90;13.00;99994.00;;;;4905608;28;122218;-67
2022/12/31 03:49:30;;;;;;;0.10;0.10;;;13.00;99.90;13.00;99982.00;;;;4906390;28;123491;-66
2022/12/31 03:51:56;;;;;;;0.10;0.10;;;13.00;99.90;13.00;99978.00;;;;4908364;28;109455;-66
2022/12/31 03:54:21;;;;;;;0.20;0.20;;;13.00;99.90;13.00;99976.00;;;;4912623;28;108591;-66
2022/12/31 03:56:47;;;;;;;0.10;0.10;;;13.00;99.90;12.90;99983.00;;;;4907994;28;122012;-68
2022/12/31 03:59:13;;;;;;;0.07;0.07;;;12.90;99.90;12.80;99975.00;;;;4907948;28;120880;-67
2022/12/31 04:01:38;;;;;;;0.23;0.13;;;12.90;99.90;12.80;99979.00;;;;4907704;28;109516;-65
2022/12/31 04:04:04;;;;;;;0.27;0.27;;;12.80;99.90;12.70;99976.00;;;;4906209;28;108366;-66
2022/12/31 04:06:29;;;;;;;0.10;0.10;;;12.70;99.90;12.60;99980.00;;;;4905615;28;121081;-65
2022/12/31 04:08:55;;;;;;;0.10;0.10;;;12.60;99.90;12.60;99988.00;;;;4920891;28;122378;-66
2022/12/31 04:11:21;;;;;;;0.20;0.20;;;12.70;99.90;12.60;99988.00;;;;4927142;28;109961;-68
2022/12/31 04:13:46;;;;;;;0.30;0.10;;;12.60;99.90;12.50;99984.00;;;;4929010;28;107596;-66
2022/12/31 04:16:12;;;;;;;0.10;0.10;;;12.50;99.90;12.50;99982.00;;;;4888931;28;120888;-66
2022/12/31 04:18:38;;;;;;;0.30;0.20;;;12.50;99.90;12.40;99992.00;;;;4904165;28;119670;-65
2022/12/31 04:21:04;;;;;;;0.33;0.20;;;12.50;99.90;12.40;99988.00;;;;4907393;28;110417;-65
2022/12/31 04:23:30;;;;;;;0.20;0.20;;;12.40;99.90;12.30;99983.00;;;;4908015;28;93648;-67
2022/12/31 04:25:56;;;;;;;1.00;0.37;;;12.40;99.90;12.30;99984.00;;;;4905801;28;123792;-65
2022/12/31 04:28:22;;;;;;;0.10;0.10;;;12.40;99.90;12.20;99972.00;;;;4904636;28;122548;-65
2022/12/31 04:30:47;;;;;;;0.27;0.27;;;12.30;99.90;12.20;99980.00;;;;4905782;28;109860;-65
2022/12/31 04:33:13;;;;;;;0.27;0.27;;;12.30;99.90;12.20;99968.00;;;;4906782;28;108590;-68
2022/12/31 04:35:39;;;;;;;0.30;0.30;;;12.20;99.90;12.10;99970.00;;;;4906792;28;121790;-68
2022/12/31 04:38:04;;;;;;;0.40;0.40;;;12.20;99.90;12.10;99967.00;;;;4908902;28;121347;-68
2022/12/31 04:40:30;;;;;;;0.30;0.30;;;12.20;99.90;12.10;99971.00;;;;4906865;28;110203;-68
2022/12/31 04:42:56;;;;;;;0.87;0.33;;;12.10;99.90;12.10;99971.00;;;;4907167;28;100076;-67
2022/12/31 04:45:22;;;;;;;0.20;0.20;;;12.10;99.90;12.10;99969.00;;;;4907764;28;123855;-66
2022/12/31 04:47:47;;;;;;;0.53;0.37;;;12.10;99.90;12.10;99975.00;;;;4907879;28;121531;-68
2022/12/31 04:50:13;;;;;;;0.30;0.30;;;12.10;99.90;12.10;99968.00;;;;4905703;28;110340;-66
2022/12/31 04:52:38;;;;;;;3.33;0.20;;;12.10;99.90;12.00;99969.00;;;;4909693;28;108660;-66
2022/12/31 04:55:05;;;;;;;0.20;0.20;;;12.10;99.90;12.10;99968.00;;;;4908928;28;122761;-66
2022/12/31 04:57:30;;;;;;;0.17;0.17;;;12.10;99.90;12.10;99963.00;;;;4908333;28;94121;-69
2022/12/31 04:59:56;;;;;;;0.20;0.20;;;12.10;99.90;12.10;99967.00;;;;4907844;28;108810;-68
2022/12/31 05:02:22;;;;;;;0.27;0.20;;;12.10;99.90;12.10;99963.00;;;;4908413;28;108635;-67
2022/12/31 05:04:47;;;;;;;0.10;0.10;;;12.10;99.90;12.10;99972.00;;;;4909465;28;121692;-67
2022/12/31 05:07:13;;;;;;;4.23;0.20;;;12.10;99.90;12.10;99967.00;;;;4906505;28;120640;-68
2022/12/31 05:09:38;;;;;;;0.10;0.10;;;12.10;99.90;12.10;99954.00;;;;4906855;28;92955;-68
2022/12/31 05:12:04;;;;;;;0.10;0.10;;;12.10;99.90;12.10;99946.00;;;;4907547;28;108399;-69
2022/12/31 05:14:30;;;;;;;0.27;0.27;;;12.10;99.90;12.10;99948.00;;;;4888742;28;113504;-68
2022/12/31 05:16:57;;;;;;;0.23;0.23;;;12.10;99.90;12.10;99959.00;;;;4907493;28;123449;-69
2022/12/31 05:19:23;;;;;;;0.10;0.10;;;12.10;99.90;12.10;99958.00;;;;4908685;28;93047;-69
2022/12/31 05:22:27;;;;;;;0.20;0.10;;;12.10;99.90;12.20;99950.00;;;;4907282;28;108209;-69
2022/12/31 05:24:34;;;;;;;0.20;0.20;;;12.20;99.90;12.30;99967.00;;;;4907104;28;92850;-68
2022/12/31 05:27:00;;;;;;;0.07;0.07;;;12.30;99.90;12.40;99957.00;;;;4908822;28;93497;-68
2022/12/31 05:29:26;;;;;;;0.13;0.13;;;12.40;99.90;12.50;99959.00;;;;4908533;28;92945;-69
2022/12/31 05:31:52;;;;;;;0.50;0.10;;;12.40;99.90;12.60;99967.00;;;;4910269;28;97438;-69
2022/12/31 05:34:17;;;;;;;0.20;0.20;;;12.50;99.90;12.60;99959.00;;;;4907674;28;123433;-70
2022/12/31 05:36:43;;;;;;;0.10;0.10;;;12.60;99.90;12.70;99952.00;;;;4904889;28;121679;-68
2022/12/31 05:39:09;;;;;;;0.20;0.20;;;12.60;99.90;12.70;99950.00;;;;4907188;28;109729;-67
2022/12/31 05:41:34;;;;;;;0.23;0.20;;;12.70;99.90;12.80;99956.00;;;;4886184;28;106865;-67
2022/12/31 05:44:00;;;;;;;0.20;0.10;;;12.80;99.90;12.90;99965.00;;;;4906533;28;121648;-68
2022/12/31 05:46:26;;;;;;;0.00;0.00;;;12.80;99.90;12.90;99954.00;;;;4904699;28;124758;-67
2022/12/31 05:48:51;;;;;;;0.33;0.30;;;12.90;99.90;13.00;99960.00;;;;4906925;28;110858;-67
2022/12/31 05:51:17;;;;;;;0.27;0.10;;;13.00;99.90;13.10;99961.00;;;;4908356;28;108276;-67
2022/12/31 05:53:43;;;;;;;0.00;0.00;;;13.00;99.90;13.10;99964.00;;;;4905705;28;92247;-67
2022/12/31 05:56:08;;;;;;;0.00;0.00;;;13.10;99.90;13.20;99953.00;;;;4893981;28;93127;-66
2022/12/31 05:58:34;;;;;;;0.00;0.00;;;13.10;99.90;13.20;99953.00;;;;4907020;28;109886;-66
2022/12/31 06:00:59;;;;;;;0.40;0.20;;;13.20;99.90;13.30;99950.00;;;;4906421;28;108380;-68
2022/12/31 06:03:25;;;;;;;0.10;0.10;;;13.20;99.90;13.30;99949.00;;;;4905920;28;123197;-66
2022/12/31 06:05:51;;;;;;;0.10;0.10;;;13.30;99.90;13.30;99959.00;;;;4906103;28;122739;-67
2022/12/31 06:08:16;;;;;;;0.20;0.10;;;13.30;99.90;13.30;99959.00;;;;4909020;28;110536;-66
2022/12/31 06:10:42;;;;;;;0.00;0.00;;;13.30;99.90;13.30;99959.00;;;;4910310;28;108708;-70
2022/12/31 06:13:08;;;;;;;2.00;0.20;;;13.30;99.90;13.20;99966.00;;;;4910680;28;93445;-66
2022/12/31 06:15:38;;;;;;;0.20;0.20;;;13.20;99.90;13.10;99974.00;;;;4909237;28;121618;-68
2022/12/31 06:18:04;;;;;;;0.10;0.10;;;13.20;99.90;13.00;99963.00;;;;4906925;28;92224;-68
2022/12/31 06:20:30;;;;;;;0.40;0.20;;;13.10;99.90;13.00;99968.00;;;;4906181;28;92990;-68
2022/12/31 06:22:55;;;;;;;0.10;0.10;;;13.00;99.90;13.00;99968.00;;;;4893457;28;93537;-68
2022/12/31 06:25:21;;;;;;;0.23;0.20;;;13.00;99.90;12.90;99978.00;;;;4903721;28;118831;-68
2022/12/31 06:27:46;;;;;;;0.10;0.10;;;13.00;99.90;12.90;99973.00;;;;4906532;28;109984;-69
2022/12/31 06:30:13;;;;;;;0.27;0.23;;;12.90;99.90;12.90;99964.00;;;;4907937;28;107848;-68
2022/12/31 06:32:39;;;;;;;0.27;0.20;;;12.90;99.90;12.90;99993.00;;;;4887934;28;94296;-68
2022/12/31 06:35:06;;;;;;;0.00;0.00;;;12.90;99.90;13.00;99981.00;;;;4908297;28;93931;-69
2022/12/31 06:37:31;;;;;;;0.90;0.10;;;13.00;99.90;13.10;99976.00;;;;4907877;28;92952;-68
2022/12/31 06:39:57;;;;;;;0.10;0.10;;;13.00;99.90;13.20;99975.00;;;;4905853;28;108705;-69
2022/12/31 06:42:23;;;;;;;0.10;0.10;;;13.10;99.90;13.30;99974.00;;;;4868324;28;115317;-70
2022/12/31 06:44:49;;;;;;;0.20;0.10;;;13.20;99.90;13.40;99957.00;;;;4907096;28;121315;-68
2022/12/31 06:47:14;;;;;;;0.20;0.10;;;13.30;99.90;13.50;99954.00;;;;4904485;28;92979;-67
2022/12/31 06:49:40;;;;;;;0.10;0.10;;;13.40;99.90;13.60;99957.00;;;;4903873;28;109818;-69
2022/12/31 06:52:05;;;;;;;0.10;0.10;;;13.50;99.90;13.70;99958.00;;;;4903269;28;121793;-67
2022/12/31 06:54:31;;;;;;;0.20;0.20;;;13.60;99.90;13.70;99953.00;;;;4905198;28;121603;-68
2022/12/31 06:56:57;;;;;;;0.40;0.10;;;13.70;99.90;13.80;99959.00;;;;4907441;28;98365;-68
2022/12/31 06:59:27;;;;;;;0.17;0.17;;;13.70;99.90;13.90;99959.00;;;;4906184;28;93082;-68
2022/12/31 07:02:24;;;;;;;0.43;0.17;;;13.80;99.90;13.90;99975.00;;;;4908566;28;93097;-70
2022/12/31 07:05:20;;;;;;;0.10;0.00;;;13.90;99.90;14.00;99995.00;;;;4903633;28;93041;-68
2022/12/31 07:08:24;;;;;;;0.00;0.00;;;14.00;99.90;14.20;100000.00;;;;4883152;28;92425;-68
2022/12/31 07:11:01;;;;;;;0.25;0.20;;;14.10;99.90;14.30;99983.00;;;;4886081;28;93019;-67
2022/12/31 07:14:19;;;;;;;0.10;0.10;;;14.20;99.90;14.40;99987.00;;;;4880943;28;111024;-66
2022/12/31 07:16:55;;;;;;;0.30;0.17;;;14.40;99.90;14.60;99993.00;;;;4849144;28;115772;-69
2022/12/31 07:19:45;;;;;;;0.22;0.20;;;14.50;99.90;14.60;99991.00;;;;4886918;28;100905;-69
2022/12/31 07:22:16;;;;;;;0.13;0.10;;;14.60;99.90;14.80;99993.00;;;;4902844;28;93067;-69
2022/12/31 07:24:43;;;;;;;0.00;0.00;;;14.70;99.90;14.80;99984.00;;;;4903439;28;94408;-69
2022/12/31 07:27:48;;;;;;;2.17;0.22;;;14.70;99.90;14.90;100004.00;;;;4905127;28;93942;-69
2022/12/31 07:30:22;;;;;;;0.30;0.20;;;14.90;99.90;15.00;100002.00;;;;4906287;28;92924;-68
2022/12/31 07:33:00;;;;;;;0.43;0.20;;;15.30;99.90;15.10;99991.00;;;;4906307;28;93798;-68
2022/12/31 07:35:42;;;;;;;0.30;0.30;;;15.10;99.90;15.10;99993.00;;;;4905223;28;92620;-68
2022/12/31 07:38:35;;;;;;;0.00;0.00;;;15.10;99.90;15.20;99971.00;;;;4906461;28;92885;-70
2022/12/31 07:41:42;;;;;;;0.10;0.10;;;15.10;99.90;15.20;99985.00;;;;4907818;28;92764;-67
2022/12/31 07:44:41;;;;;;;0.10;0.10;;;15.20;99.90;15.20;99992.00;;;;4907702;28;97897;-68
2022/12/31 07:47:19;;;;;;;0.20;0.20;;;15.20;99.90;15.20;99990.00;;;;4906587;28;93040;-66
2022/12/31 07:49:45;;;;;;;0.32;0.30;;;15.20;99.90;15.30;100000.00;;;;4887517;28;94188;-68
2022/12/31 07:52:11;;;;;;;0.28;0.22;;;15.20;99.90;15.30;99994.00;;;;4904415;28;93189;-69
2022/12/31 07:54:37;;;;;;;1.30;0.38;;;15.20;99.90;15.30;100008.00;;;;4903604;28;99763;-69
2022/12/31 07:57:03;;;;;;;0.05;0.05;;;15.30;99.90;15.40;99998.00;;;;4901591;28;123798;-68
2022/12/31 08:00:08;;;;;;;0.43;0.20;;;15.40;99.90;15.50;100001.00;;;;4889324;28;121924;-67
2022/12/31 08:03:01;;;;;;;0.30;0.13;;;15.40;99.90;15.60;99999.00;;;;4892672;28;92205;-68
2022/12/31 08:06:06;;;;;;;0.57;0.30;;;15.50;99.90;15.60;100009.00;;;;4883423;28;92820;-69
2022/12/31 08:08:43;;;;;;;0.63;0.32;;;15.60;99.90;15.70;100031.00;;;;4884841;28;93593;-67
2022/12/31 08:11:24;;;;;;;0.38;0.32;;;15.70;99.90;15.80;100004.00;;;;4886624;28;94730;-67
2022/12/31 08:13:52;;;;;;;0.10;0.10;;;15.70;99.90;15.80;100027.00;;;;4908508;28;94439;-67
2022/12/31 08:16:20;;;;;;;0.15;0.10;;;15.80;99.90;15.90;100027.00;;;;4894996;28;93116;-67
2022/12/31 08:18:46;;;;;;;0.38;0.30;;;15.80;99.90;15.90;100028.00;;;;4904144;28;93062;-69
2022/12/31 08:21:52;;;;;;;0.20;0.20;;;15.90;99.90;16.00;100018.00;;;;4902767;28;93988;-67
2022/12/31 08:24:34;;;;;;;0.22;0.20;;;15.90;99.90;16.10;100002.00;;;;4884497;28;93019;-70
2022/12/31 08:27:21;;;;;;;0.88;0.10;;;16.00;99.90;16.10;100032.00;;;;4903785;28;94170;-68
2022/12/31 08:30:13;;;;;;;0.10;0.10;;;16.10;99.90;16.20;100031.00;;;;4891453;28;93613;-67
2022/12/31 08:33:01;;;;;;;0.20;0.20;;;16.10;99.90;16.30;100040.00;;;;4879857;28;97925;-69
2022/12/31 08:35:46;;;;;;;0.05;0.05;;;16.20;99.90;16.30;100036.00;;;;4891337;28;102901;-66
2022/12/31 08:38:33;;;;;;;1.65;0.20;;;16.20;99.90;16.30;100036.00;;;;4902850;28;102466;-66
2022/12/31 08:41:32;;;;;;;2.42;0.10;;;16.30;99.90;16.30;100027.00;;;;4887395;28;101088;-66
2022/12/31 08:44:30;;;;;;;0.30;0.30;;;16.30;99.90;16.30;100040.00;;;;4886480;28;92755;-67
2022/12/31 08:47:05;;;;;;;2.20;0.32;;;16.30;99.90;16.40;100042.00;;;;4905167;28;92881;-65
2022/12/31 08:49:33;;;;;;;0.90;0.35;;;16.30;99.90;16.40;100049.00;;;;4879858;28;93218;-68
2022/12/31 08:52:00;;;;;;;1.88;0.90;;;16.30;99.90;16.50;100034.00;;;;4903462;28;113019;-67
2022/12/31 08:54:27;;;;;;;0.30;0.30;;;16.40;99.90;16.50;100026.00;;;;4912153;28;94323;-65
2022/12/31 08:57:06;;;;;;;0.73;0.10;;;16.50;99.90;16.60;100034.00;;;;4920702;28;103258;-66
2022/12/31 09:00:22;;;;;;;0.32;0.30;;;16.50;99.90;16.60;100038.00;;;;4904359;28;98980;-66
2022/12/31 09:03:25;;;;;;;0.70;0.70;;;16.50;99.90;16.70;100029.00;;;;4852463;28;93145;-65
2022/12/31 09:05:57;;;;;;;0.30;0.30;;;16.60;99.90;16.70;100030.00;;;;4903112;28;93943;-66
2022/12/31 09:08:59;;;;;;;0.73;0.45;;;16.60;99.90;16.80;100033.00;;;;4887612;28;92712;-70
2022/12/31 09:11:49;;;;;;;3.03;1.85;;;16.70;99.90;16.90;100033.00;;;;4878443;28;93190;-68
2022/12/31 09:14:57;;;;;;;1.08;0.57;;;16.80;99.90;17.10;100024.00;;;;4902026;28;92826;-66
2022/12/31 09:17:48;;;;;;;0.20;0.15;;;17.00;99.90;17.20;100047.00;;;;4840447;28;115263;-66
2022/12/31 09:20:28;;;;;;;0.57;0.28;;;17.10;99.90;17.30;100054.00;;;;4901973;28;92938;-67
2022/12/31 09:22:55;;;;;;;0.88;0.40;;;17.20;99.90;17.40;100047.00;;;;4905389;28;92850;-66
2022/12/31 09:25:23;;;;;;;0.63;0.38;;;17.30;99.90;17.50;100051.00;;;;4900987;28;92656;-69
2022/12/31 09:28:08;;;;;;;0.20;0.20;;;17.40;99.90;17.40;100042.00;;;;4886587;28;96912;-67
2022/12/31 09:31:14;;;;;;;0.10;0.10;;;17.40;99.90;17.40;100051.00;;;;4880283;28;93097;-68
2022/12/31 09:33:58;;;;;;;0.20;0.13;;;17.40;99.90;17.40;100044.00;;;;4883257;28;94008;-66
2022/12/31 09:36:47;;;;;;;0.28;0.10;;;17.40;99.90;17.50;100059.00;;;;4901998;28;106796;-66
2022/12/31 09:39:36;;;;;;;0.17;0.17;;;17.40;99.90;17.50;100043.00;;;;4886831;28;115104;-67
2022/12/31 09:42:46;;;;;;;0.22;0.22;;;17.40;99.90;17.50;100055.00;;;;4878787;28;93048;-66
2022/12/31 09:46:08;;;;;;;0.25;0.25;;;17.40;99.90;17.50;100055.00;;;;4906210;28;92961;-65
2022/12/31 09:48:55;;;;;;;0.10;0.10;;;17.40;99.90;17.60;100052.00;;;;4887189;28;93110;-67
2022/12/31 09:51:52;;;;;;;0.10;0.10;;;17.50;99.90;17.60;100031.00;;;;4888480;28;116283;-69
2022/12/31 09:54:23;;;;;;;0.00;0.00;;;17.50;99.90;17.70;100053.00;;;;4896013;28;92409;-68
2022/12/31 09:57:18;;;;;;;0.20;0.13;;;17.60;99.90;17.70;100059.00;;;;4902845;28;92927;-66
2022/12/31 10:00:16;;;;;;;0.20;0.10;;;17.70;99.90;17.90;100052.00;;;;4886029;28;115967;-68
2022/12/31 10:03:27;;;;;;;0.13;0.13;;;17.80;99.90;18.00;100059.00;;;;4897772;28;93776;-65
2022/12/31 10:06:24;;;;;;;0.15;0.08;;;17.80;99.90;18.10;100055.00;;;;4899775;28;104386;-65
2022/12/31 10:09:09;;;;;;;0.50;0.22;;;18.00;99.90;18.20;100063.00;;;;4884834;28;93211;-65
2022/12/31 10:11:49;;;;;;;0.22;0.20;;;18.10;99.90;18.30;100058.00;;;;4900919;28;102776;-67
2022/12/31 10:14:43;;;;;;;0.57;0.30;;;18.20;99.90;18.40;100057.00;;;;4904260;28;92858;-66
2022/12/31 10:17:45;;;;;;;0.10;0.10;;;18.30;99.90;18.40;100066.00;;;;4899125;28;94195;-69
2022/12/31 10:20:46;;;;;;;0.30;0.30;;;18.40;99.90;18.40;100063.00;;;;4887353;28;102160;-67
2022/12/31 10:23:46;;;;;;;0.10;0.10;;;18.40;99.60;18.20;100046.00;;;;4888304;28;98951;-66
2022/12/31 10:26:28;;;;;;;0.05;0.05;;;18.30;99.40;18.20;100057.00;;;;4899509;28;93121;-67
2022/12/31 10:29:47;;;;;;;0.15;0.15;;;18.20;99.70;18.30;100028.00;;;;4885952;28;93198;-68
2022/12/31 10:32:20;;;;;;;0.30;0.22;;;18.20;99.90;18.50;100055.00;;;;4884346;28;93758;-66
2022/12/31 10:35:22;;;;;;;2.00;0.57;;;18.40;99.50;18.70;100049.00;;;;4886409;28;93123;-67
2022/12/31 10:38:04;;;;;;;0.40;0.30;;;18.50;99.40;18.80;100064.00;;;;4899796;28;94201;-69
2022/12/31 10:41:28;;;;;;;0.10;0.10;;;18.70;98.60;19.00;100034.00;;;;4903043;28;93170;-66
2022/12/31 10:44:31;;;;;;;0.68;0.45;;;18.80;98.10;19.00;100057.00;;;;4902629;28;92967;-67
2022/12/31 10:47:36;;;;;;;0.40;0.25;;;18.90;97.70;19.10;100051.00;;;;4900932;28;93917;-67
2022/12/31 10:50:38;;;;;;;0.25;0.10;;;19.00;97.60;19.10;100025.00;;;;4877280;28;105885;-66
2022/12/31 10:53:41;;;;;;;0.35;0.30;;;19.00;96.70;19.00;100062.00;;;;4899254;28;103089;-65
2022/12/31 10:56:13;;;;;;;0.30;0.30;;;19.00;96.80;19.10;100060.00;;;;4906175;28;92824;-66
2022/12/31 10:59:32;;;;;;;0.13;0.13;;;19.00;97.00;19.10;100069.00;;;;4876271;28;110903;-66
2022/12/31 11:02:37;;;;;;;0.32;0.32;;;19.00;97.00;19.30;100062.00;;;;4905365;28;93669;-67
2022/12/31 11:05:54;;;;;;;0.10;0.10;;;19.10;97.00;19.40;100059.00;;;;4905043;28;93033;-67
2022/12/31 11:09:09;;;;;;;1.67;0.28;;;19.30;96.50;19.30;100073.00;;;;4884820;28;93066;-64
2022/12/31 11:11:49;;;;;;;0.75;0.32;;;19.30;96.30;19.30;100035.00;;;;4905951;28;92865;-65
2022/12/31 11:14:56;;;;;;;0.20;0.17;;;19.40;96.30;19.20;100059.00;;;;4904332;28;93689;-67
2022/12/31 11:17:44;;;;;;;3.05;0.40;;;19.20;96.10;19.10;100070.00;;;;4862259;28;93271;-66
2022/12/31 11:20:55;;;;;;;0.10;0.10;;;19.00;96.20;18.90;100074.00;;;;4906377;28;92844;-66
2022/12/31 11:23:34;;;;;;;3.70;0.43;;;18.90;96.40;18.70;100059.00;;;;4904379;28;92391;-65
2022/12/31 11:26:37;;;;;;;0.47;0.10;;;18.70;96.90;18.60;100063.00;;;;4878213;28;111729;-66
2022/12/31 11:29:28;;;;;;;0.47;0.30;;;18.60;97.20;18.60;100075.00;;;;4906239;28;92672;-65
2022/12/31 11:32:21;;;;;;;0.47;0.20;;;18.50;97.80;18.60;100077.00;;;;4902495;28;94138;-66
2022/12/31 11:35:12;;;;;;;0.55;0.45;;;18.50;97.50;18.70;100088.00;;;;4906507;28;92930;-64
2022/12/31 11:38:11;;;;;;;0.30;0.20;;;18.60;97.40;18.70;100083.00;;;;4904374;28;93384;-67
2022/12/31 11:41:15;;;;;;;0.20;0.20;;;18.60;97.20;18.60;100097.00;;;;4890343;28;101507;-66
2022/12/31 11:44:09;;;;;;;0.73;0.40;;;18.60;97.50;18.40;100084.00;;;;4886784;28;99876;-64
2022/12/31 11:47:30;;;;;;;0.10;0.10;;;18.40;97.70;18.30;100073.00;;;;4886016;28;110685;-65
2022/12/31 11:50:49;;;;;;;0.85;0.40;;;18.30;98.10;18.20;100073.00;;;;4867027;28;93369;-68